Yukon, Arkansas
Current Conditions -  °F | °C
As of 12:53 AM on Friday 19 Dec 2014 (Local Time) from KLLQ Reporting Station
Overcast Overcast  
Wind Chill: 43°   Ceiling: 3900
Heat Index: 45°   Visibility: 10mi
Dew Point: 42°   Wind: 5mph
Humidity: 90%   Direction: 50°NE
Pressure: 30.2"   Gusts: NA
Location:  33.7466°N, 91.5753°W
Report Text: KLLQ 190653Z AUTO 05004KT 10SM FEW006 OVC039 07/06 A3020 RMK AO2 SLP226 T00720056
Loading
Personal Weather Stations






























Interactive Weather Map New forecast layout! Learn more

10-Day Weather Forecast

Advertisements
Track Severe Weather on mobile